Time;durP1;ratioP1;P1;durP2;ratioP2;P2;SDS_P1;SDS_P2;PMS_P1;PMS_P2;Temp;Humidity;BMP_temperature;BMP_pressure;BME280_temperature;BME280_humidity;BME280_pressure;Samples;Min_cycle;Max_cycle;Signal;HPM_P1;HPM_P2
2022/07/06 00:00:07;;;;;;;29.27;26.80;;;;;;;16.13;nan;99192.97;2048531;29;20442;-74
2022/07/06 00:01:11;;;;;;;28.80;26.53;;;;;;;16.15;nan;99190.75;2049051;28;20206;-74
2022/07/06 00:02:14;;;;;;;28.60;26.40;;;;;;;16.12;nan;99189.50;2049178;29;20548;-74
2022/07/06 00:03:16;;;;;;;27.93;25.63;;;;;;;16.12;nan;99192.19;2049611;28;20426;-73
2022/07/06 00:04:20;;;;;;;28.77;26.47;;;;;;;16.15;nan;99194.22;2057795;28;20515;-73
2022/07/06 00:05:21;;;;;;;28.07;25.77;;;;;;;16.24;nan;99196.84;2057948;28;20196;-74
2022/07/06 00:06:22;;;;;;;27.90;25.67;;;;;;;16.18;nan;99190.88;2057442;28;20489;-73
2022/07/06 00:07:23;;;;;;;28.03;25.73;;;;;;;16.16;nan;99193.13;2048539;29;20438;-74
2022/07/06 00:08:26;;;;;;;27.63;25.33;;;;;;;16.17;nan;99193.91;2049353;29;20437;-73
2022/07/06 00:09:27;;;;;;;28.47;26.03;;;;;;;16.24;nan;99200.31;2049087;29;20202;-73
2022/07/06 00:10:30;;;;;;;28.03;25.83;;;;;;;16.22;nan;99204.47;2049414;29;21005;-74
2022/07/06 00:11:31;;;;;;;28.90;26.50;;;;;;;16.18;nan;99193.56;2057678;28;20219;-74
2022/07/06 00:12:33;;;;;;;28.43;26.00;;;;;;;16.17;nan;99197.38;2057964;28;20433;-73
2022/07/06 00:13:33;;;;;;;28.83;26.53;;;;;;;16.18;nan;99190.09;2049152;29;20621;-73
2022/07/06 00:14:35;;;;;;;27.93;25.63;;;;;;;16.17;nan;99188.53;2041500;29;20465;-74
2022/07/06 00:15:38;;;;;;;27.90;25.70;;;;;;;16.16;nan;99193.13;2049279;28;20187;-73
2022/07/06 00:16:42;;;;;;;27.43;25.23;;;;;;;16.21;nan;99192.13;2057637;28;20476;-74
2022/07/06 00:17:43;;;;;;;27.90;25.43;;;;;;;16.16;nan;99189.63;2057730;28;20432;-73
2022/07/06 00:18:47;;;;;;;26.93;24.83;;;;;;;16.15;nan;99191.53;2057768;28;20433;-74
2022/07/06 00:19:48;;;;;;;27.30;25.20;;;;;;;16.15;nan;99196.13;2057980;28;20197;-74
2022/07/06 00:20:49;;;;;;;28.07;25.77;;;;;;;16.14;nan;99195.34;2048455;29;20928;-73
2022/07/06 00:21:50;;;;;;;27.97;25.60;;;;;;;16.13;nan;99195.66;2048734;29;20809;-74
2022/07/06 00:22:51;;;;;;;26.13;24.13;;;;;;;16.14;nan;99194.56;2057742;28;20299;-73
2022/07/06 00:23:53;;;;;;;26.47;24.33;;;;;;;16.16;nan;99200.38;2049105;29;20446;-74
2022/07/06 00:24:55;;;;;;;27.73;25.23;;;;;;;16.15;nan;99196.91;2049301;28;20199;-74
2022/07/06 00:25:58;;;;;;;26.90;24.80;;;;;;;16.10;nan;99189.06;2057922;28;20513;-74
2022/07/06 00:27:01;;;;;;;27.23;24.93;;;;;;;16.11;nan;99191.41;2048349;29;20450;-73
2022/07/06 00:28:02;;;;;;;26.77;24.43;;;;;;;16.08;nan;99185.91;2049410;28;20469;-74
2022/07/06 00:29:04;;;;;;;26.00;23.77;;;;;;;16.10;nan;99187.16;2048744;29;20445;-74
2022/07/06 00:30:08;;;;;;;26.20;24.10;;;;;;;16.14;nan;99194.56;2049334;28;20469;-74
2022/07/06 00:31:10;;;;;;;26.87;24.67;;;;;;;16.08;nan;99184.00;2056973;28;20835;-74
2022/07/06 00:32:11;;;;;;;26.47;24.10;;;;;;;16.06;nan;99180.81;2057125;28;20425;-73
2022/07/06 00:33:12;;;;;;;27.77;25.53;;;;;;;16.06;nan;99185.44;2056673;28;20952;-74
2022/07/06 00:34:16;;;;;;;27.97;25.37;;;;;;;16.03;nan;99178.81;2049072;29;20285;-73
2022/07/06 00:35:17;;;;;;;26.53;24.43;;;;;;;16.03;nan;99181.50;2049678;28;20437;-74
2022/07/06 00:36:18;;;;;;;25.63;23.73;;;;;;;16.00;nan;99181.38;2058823;28;20535;-73
2022/07/06 00:37:23;;;;;;;27.50;25.33;;;;;;;15.98;nan;99186.28;2050541;29;20441;-73
2022/07/06 00:38:24;;;;;;;27.10;25.00;;;;;;;15.96;nan;99183.91;2050775;28;21018;-74
2022/07/06 00:39:28;;;;;;;27.47;25.37;;;;;;;15.98;nan;99175.50;2059231;28;20818;-74
2022/07/06 00:40:29;;;;;;;26.83;24.77;;;;;;;15.97;nan;99176.63;2049699;29;20207;-73
2022/07/06 00:41:33;;;;;;;27.23;25.13;;;;;;;15.96;nan;99178.53;2042760;29;20485;-74
2022/07/06 00:42:39;;;;;;;27.90;25.60;;;;;;;16.01;nan;99178.34;2042914;29;20521;-74
2022/07/06 00:43:50;;;;;;;26.80;24.80;;;;;;;15.99;nan;99175.22;2050197;29;20442;-74
2022/07/06 00:44:53;;;;;;;26.77;24.77;;;;;;;15.98;nan;99175.50;2052075;28;20778;-74
2022/07/06 00:45:53;;;;;;;26.53;24.43;;;;;;;15.99;nan;99174.41;2059178;28;20495;-74
2022/07/06 00:46:56;;;;;;;27.37;25.17;;;;;;;15.98;nan;99172.81;2059152;28;20433;-74
2022/07/06 00:47:57;;;;;;;27.80;25.60;;;;;;;15.97;nan;99177.41;2058535;28;20726;-74
2022/07/06 00:48:59;;;;;;;28.33;26.03;;;;;;;15.97;nan;99180.09;2058594;28;20806;-74
2022/07/06 00:50:18;;;;;;;26.53;24.50;;;;;;;15.99;nan;99182.50;2050157;29;20234;-73
2022/07/06 00:51:20;;;;;;;26.63;24.53;;;;;;;15.99;nan;99185.19;2052629;28;20480;-74
2022/07/06 00:52:21;;;;;;;26.47;24.30;;;;;;;15.95;nan;99186.94;2059340;28;20468;-74
2022/07/06 00:53:23;;;;;;;26.87;24.73;;;;;;;15.94;nan;99186.16;2059157;28;20448;-74
2022/07/06 00:54:26;;;;;;;26.87;24.67;;;;;;;15.97;nan;99188.19;2049790;29;20238;-74
2022/07/06 00:55:32;;;;;;;27.10;24.80;;;;;;;15.98;nan;99183.59;2050391;29;20860;-73
2022/07/06 00:56:34;;;;;;;26.23;24.23;;;;;;;15.96;nan;99185.81;2050423;29;20485;-73
2022/07/06 00:57:36;;;;;;;25.73;23.63;;;;;;;15.95;nan;99181.56;2042560;29;20945;-74
2022/07/06 00:58:36;;;;;;;25.73;23.73;;;;;;;15.94;nan;99190.75;2050587;28;20449;-73
2022/07/06 00:59:38;;;;;;;26.47;24.47;;;;;;;15.89;nan;99180.16;2059103;28;20472;-74
2022/07/06 01:00:44;;;;;;;27.40;25.20;;;;;;;15.92;nan;99182.22;2059066;28;20586;-74
2022/07/06 01:01:48;;;;;;;26.57;24.57;;;;;;;15.99;nan;99182.50;2050405;29;20445;-74
2022/07/06 01:02:48;;;;;;;26.10;24.17;;;;;;;15.96;nan;99183.13;2042721;29;20483;-74
2022/07/06 01:03:50;;;;;;;26.50;24.40;;;;;;;15.93;nan;99184.59;2050400;29;20454;-74
2022/07/06 01:04:52;;;;;;;26.30;24.20;;;;;;;15.91;nan;99178.75;2050347;29;20273;-73
2022/07/06 01:05:54;;;;;;;26.33;24.33;;;;;;;15.90;nan;99173.66;2049889;29;20998;-74
2022/07/06 01:06:56;;;;;;;26.90;24.90;;;;;;;15.89;nan;99174.78;2050349;29;20456;-74
2022/07/06 01:08:00;;;;;;;27.47;25.37;;;;;;;15.89;nan;99180.16;2050680;28;20430;-73
2022/07/06 01:09:01;;;;;;;28.20;26.00;;;;;;;15.88;nan;99179.38;2058988;28;20437;-73
2022/07/06 01:10:04;;;;;;;28.70;26.20;;;;;;;15.88;nan;99175.91;2059026;28;20790;-73
2022/07/06 01:11:04;;;;;;;28.43;26.17;;;;;;;15.87;nan;99185.09;2058916;28;20447;-74
2022/07/06 01:12:11;;;;;;;28.70;26.50;;;;;;;15.87;nan;99182.41;2059001;28;20429;-74
2022/07/06 01:13:12;;;;;;;28.17;25.77;;;;;;;15.86;nan;99184.31;2058322;28;20206;-73
2022/07/06 01:14:15;;;;;;;27.63;25.33;;;;;;;15.85;nan;99181.97;2058401;28;20496;-73
2022/07/06 01:15:17;;;;;;;26.80;24.60;;;;;;;15.83;nan;99180.38;2042596;29;20630;-74
2022/07/06 01:16:21;;;;;;;27.77;25.37;;;;;;;15.83;nan;99176.91;2050219;28;20860;-73
2022/07/06 01:17:22;;;;;;;25.97;23.97;;;;;;;15.81;nan;99176.44;2058692;28;20943;-73
2022/07/06 01:18:26;;;;;;;26.13;24.10;;;;;;;15.80;nan;99182.94;2058428;28;20473;-74
2022/07/06 01:19:27;;;;;;;25.77;23.87;;;;;;;15.80;nan;99178.31;2050302;29;20446;-74
2022/07/06 01:20:30;;;;;;;25.87;23.87;;;;;;;15.79;nan;99173.28;2042325;29;20461;-73
2022/07/06 01:21:31;;;;;;;27.37;25.23;;;;;;;15.80;nan;99181.03;2050209;28;20297;-74
2022/07/06 01:22:33;;;;;;;27.10;25.10;;;;;;;15.80;nan;99181.03;2050197;29;20446;-73
2022/07/06 01:23:38;;;;;;;26.47;24.47;;;;;;;15.81;nan;99185.31;2042365;29;20203;-74
2022/07/06 01:24:40;;;;;;;26.30;24.27;;;;;;;15.81;nan;99179.13;2043195;29;20455;-73
2022/07/06 01:25:41;;;;;;;25.80;23.80;;;;;;;15.79;nan;99175.97;2050313;29;21015;-73
2022/07/06 01:26:44;;;;;;;25.97;24.03;;;;;;;15.79;nan;99179.44;2058864;28;20794;-73
2022/07/06 01:27:45;;;;;;;26.10;24.10;;;;;;;15.79;nan;99178.66;2050173;29;20194;-74
2022/07/06 01:28:48;;;;;;;29.70;24.73;;;;;;;15.80;nan;99181.03;2042354;29;20478;-74
2022/07/06 01:29:49;;;;;;;26.67;24.43;;;;;;;15.79;nan;99182.13;2050662;28;20426;-73
2022/07/06 01:30:51;;;;;;;26.80;24.60;;;;;;;15.79;nan;99184.81;2058867;28;21011;-73
2022/07/06 01:31:52;;;;;;;26.47;24.37;;;;;;;15.79;nan;99186.72;2058877;28;20209;-74
2022/07/06 01:32:55;;;;;;;26.27;24.27;;;;;;;15.79;nan;99184.81;2049787;29;21036;-74
2022/07/06 01:33:57;;;;;;;26.13;24.13;;;;;;;15.83;nan;99187.66;2050355;28;20221;-73
2022/07/06 01:34:58;;;;;;;25.53;23.60;;;;;;;15.84;nan;99191.94;2058265;28;20967;-74
2022/07/06 01:36:01;;;;;;;25.27;23.27;;;;;;;15.83;nan;99191.16;2049600;29;20206;-73
2022/07/06 01:37:05;;;;;;;25.50;23.53;;;;;;;15.80;nan;99191.78;2050458;28;20407;-73
2022/07/06 01:38:06;;;;;;;25.67;23.67;;;;;;;15.82;nan;99194.16;2049639;29;20453;-73
2022/07/06 01:39:09;;;;;;;25.87;23.87;;;;;;;15.80;nan;99191.78;2050272;29;20430;-73
2022/07/06 01:40:13;;;;;;;24.43;22.60;;;;;;;15.80;nan;99194.47;2058778;28;20182;-74
2022/07/06 01:41:15;;;;;;;25.33;23.33;;;;;;;15.79;nan;99192.13;2058904;28;20425;-73
2022/07/06 01:42:17;;;;;;;26.07;23.80;;;;;;;15.80;nan;99191.78;2058786;28;20429;-73
2022/07/06 01:43:21;;;;;;;25.40;23.30;;;;;;;15.81;nan;99193.38;2058789;28;20473;-73
2022/07/06 01:44:21;;;;;;;26.13;24.00;;;;;;;15.81;nan;99190.69;2058042;28;20453;-73
2022/07/06 01:45:23;;;;;;;25.20;23.20;;;;;;;15.81;nan;99193.38;2050099;29;20537;-73
2022/07/06 01:46:23;;;;;;;26.73;24.27;;;;;;;15.80;nan;99191.78;2050420;28;20198;-73
2022/07/06 01:47:26;;;;;;;28.53;24.13;;;;;;;15.80;nan;99182.94;2058006;28;20433;-74
2022/07/06 01:48:30;;;;;;;26.83;24.73;;;;;;;15.81;nan;99187.19;2058741;28;20249;-73
2022/07/06 01:49:34;;;;;;;26.97;24.87;;;;;;;15.82;nan;99194.16;2050088;29;20449;-73
2022/07/06 01:50:37;;;;;;;27.17;24.87;;;;;;;15.84;nan;99191.94;2050053;29;20799;-73
2022/07/06 01:51:40;;;;;;;27.13;24.83;;;;;;;15.84;nan;99186.56;2041950;29;20468;-73
2022/07/06 01:52:41;;;;;;;27.30;24.90;;;;;;;15.80;nan;99186.41;2050279;28;20438;-73
2022/07/06 01:53:43;;;;;;;26.23;24.20;;;;;;;15.82;nan;99186.88;2049641;29;20956;-73
2022/07/06 01:54:45;;;;;;;27.57;25.37;;;;;;;15.81;nan;99179.94;2042162;29;20203;-73
2022/07/06 01:55:47;;;;;;;27.97;25.77;;;;;;;15.83;nan;99195.75;2050264;28;20462;-74
2022/07/06 01:56:48;;;;;;;27.63;25.40;;;;;;;15.82;nan;99194.97;2049994;29;20457;-73
2022/07/06 01:57:50;;;;;;;28.07;25.57;;;;;;;15.82;nan;99197.66;2042125;29;20478;-73
2022/07/06 01:58:51;;;;;;;27.57;25.30;;;;;;;15.81;nan;99193.38;2050165;28;20202;-74
2022/07/06 01:59:52;;;;;;;27.70;25.50;;;;;;;15.83;nan;99196.53;2058650;28;20430;-73
2022/07/06 02:00:53;;;;;;;26.83;24.63;;;;;;;15.87;nan;99198.56;2058000;28;20204;-73
2022/07/06 02:01:55;;;;;;;27.53;25.30;;;;;;;15.88;nan;99200.13;2049984;29;20446;-73
2022/07/06 02:02:56;;;;;;;27.67;25.27;;;;;;;15.88;nan;99203.59;2042209;29;20618;-73
2022/07/06 02:03:58;;;;;;;27.77;25.37;;;;;;;15.88;nan;99203.59;2050176;29;20434;-73
2022/07/06 02:04:59;;;;;;;28.03;25.57;;;;;;;15.88;nan;99200.13;2049980;29;20579;-73
2022/07/06 02:06:02;;;;;;;27.43;25.27;;;;;;;15.89;nan;99201.69;2049385;29;20449;-73
2022/07/06 02:07:04;;;;;;;28.07;25.47;;;;;;;15.92;nan;99201.06;2049931;29;20457;-73
2022/07/06 02:08:08;;;;;;;28.33;25.67;;;;;;;15.87;nan;99199.34;2042135;29;20461;-73
2022/07/06 02:09:10;;;;;;;29.43;26.33;;;;;;;15.89;nan;99199.00;2042149;29;20584;-74
2022/07/06 02:10:12;;;;;;;28.43;26.10;;;;;;;15.90;nan;99190.63;2041781;29;20455;-73
2022/07/06 02:11:13;;;;;;;28.77;26.03;;;;;;;15.95;nan;99190.41;2042223;29;20447;-73
2022/07/06 02:12:17;;;;;;;28.10;25.90;;;;;;;15.91;nan;99192.22;2049843;29;20838;-74
2022/07/06 02:13:18;;;;;;;27.93;25.53;;;;;;;15.89;nan;99183.66;2050230;28;20437;-73
2022/07/06 02:14:19;;;;;;;27.70;25.20;;;;;;;15.91;nan;99191.41;2058629;28;20899;-74
2022/07/06 02:15:24;;;;;;;26.83;24.57;;;;;;;15.88;nan;99189.38;2049948;29;20221;-74
2022/07/06 02:16:25;;;;;;;27.10;24.83;;;;;;;15.84;nan;99178.47;2049574;29;20999;-73
2022/07/06 02:17:26;;;;;;;27.37;24.77;;;;;;;15.85;nan;99190.03;2049941;28;20556;-73
2022/07/06 02:18:27;;;;;;;28.20;25.70;;;;;;;15.89;nan;99182.88;2057952;28;20468;-74
2022/07/06 02:19:33;;;;;;;27.27;24.63;;;;;;;15.83;nan;99182.28;2058680;28;20460;-73
2022/07/06 02:20:35;;;;;;;27.57;25.17;;;;;;;15.82;nan;99184.19;2049790;29;20454;-74
2022/07/06 02:21:37;;;;;;;27.40;24.97;;;;;;;15.83;nan;99183.06;2041600;29;20467;-73
2022/07/06 02:22:39;;;;;;;27.73;25.13;;;;;;;15.87;nan;99185.09;2049960;28;20225;-73
2022/07/06 02:23:41;;;;;;;27.30;25.10;;;;;;;15.90;nan;99179.06;2049792;29;21040;-73
2022/07/06 02:24:42;;;;;;;28.07;25.73;;;;;;;15.90;nan;99184.44;2049805;29;20952;-73
2022/07/06 02:25:46;;;;;;;27.97;25.67;;;;;;;15.90;nan;99182.56;2041842;29;20837;-73
2022/07/06 02:26:47;;;;;;;27.87;25.33;;;;;;;15.93;nan;99181.09;2042254;29;20237;-73
2022/07/06 02:27:49;;;;;;;26.80;24.50;;;;;;;15.92;nan;99184.91;2049797;29;20441;-73
2022/07/06 02:28:49;;;;;;;27.33;24.93;;;;;;;15.93;nan;99183.81;2049769;29;20572;-74
2022/07/06 02:29:51;;;;;;;27.47;24.93;;;;;;;15.93;nan;99186.50;2041828;29;20452;-73
2022/07/06 02:30:55;;;;;;;26.90;24.80;;;;;;;15.97;nan;99184.69;2050415;28;20244;-73
2022/07/06 02:31:57;;;;;;;26.93;24.67;;;;;;;15.93;nan;99187.28;2058438;28;20519;-74
2022/07/06 02:32:58;;;;;;;26.70;24.40;;;;;;;15.96;nan;99183.13;2049781;29;20895;-73
2022/07/06 02:34:01;;;;;;;26.67;24.43;;;;;;;15.93;nan;99183.81;2041877;29;20451;-74
2022/07/06 02:35:03;;;;;;;27.27;24.97;;;;;;;15.91;nan;99181.44;2049666;29;20540;-74
2022/07/06 02:36:05;;;;;;;27.00;24.60;;;;;;;15.91;nan;99186.81;2041313;29;20457;-74
2022/07/06 02:37:06;;;;;;;28.43;25.60;;;;;;;15.92;nan;99187.59;2049372;29;20792;-73
2022/07/06 02:38:10;;;;;;;26.67;24.47;;;;;;;15.92;nan;99188.41;2041318;29;20498;-73
2022/07/06 02:39:11;;;;;;;26.83;24.53;;;;;;;15.87;nan;99182.41;2041637;29;20528;-73
2022/07/06 02:40:17;;;;;;;26.63;24.53;;;;;;;15.87;nan;99193.19;2042219;29;20439;-73
2022/07/06 02:41:18;;;;;;;26.53;24.37;;;;;;;15.95;nan;99186.94;2049621;29;20457;-74
2022/07/06 02:42:19;;;;;;;27.03;24.93;;;;;;;15.96;nan;99199.28;2049754;29;20529;-73
2022/07/06 02:43:22;;;;;;;26.40;24.30;;;;;;;15.97;nan;99190.88;2049670;29;20704;-73
2022/07/06 02:44:25;;;;;;;27.63;24.90;;;;;;;15.94;nan;99196.13;2049638;29;20434;-73
2022/07/06 02:45:27;;;;;;;27.77;25.37;;;;;;;15.95;nan;99193.09;2041952;29;20451;-73
2022/07/06 02:46:29;;;;;;;28.03;25.10;;;;;;;15.95;nan;99189.63;2049625;29;20532;-73
2022/07/06 02:47:30;;;;;;;28.43;25.83;;;;;;;15.96;nan;99189.31;2041712;29;20462;-73
2022/07/06 02:48:32;;;;;;;28.07;25.50;;;;;;;15.96;nan;99193.91;2049599;29;20549;-73
2022/07/06 02:49:33;;;;;;;27.70;25.40;;;;;;;15.97;nan;99190.09;2049794;29;20481;-74
2022/07/06 02:50:37;;;;;;;26.87;24.37;;;;;;;15.98;nan;99191.66;2049613;29;20442;-74
2022/07/06 02:51:39;;;;;;;27.63;25.20;;;;;;;15.99;nan;99191.34;2049760;28;20237;-74
2022/07/06 02:52:41;;;;;;;27.07;24.77;;;;;;;16.00;nan;99192.94;2049612;29;20550;-73
2022/07/06 02:53:43;;;;;;;27.07;24.60;;;;;;;15.99;nan;99193.25;2049596;29;20566;-74
2022/07/06 02:54:46;;;;;;;28.07;25.30;;;;;;;15.98;nan;99192.44;2049562;29;20504;-73
2022/07/06 02:55:46;;;;;;;26.53;24.27;;;;;;;15.98;nan;99192.44;2041780;29;20447;-73
2022/07/06 02:56:52;;;;;;;27.63;25.13;;;;;;;15.98;nan;99194.34;2049764;28;20917;-72
2022/07/06 02:57:53;;;;;;;27.20;25.00;;;;;;;15.98;nan;99197.81;2049567;29;20553;-73
2022/07/06 02:58:56;;;;;;;26.40;24.00;;;;;;;15.99;nan;99198.66;2040970;29;20446;-74
2022/07/06 02:59:57;;;;;;;26.70;24.50;;;;;;;15.99;nan;99194.03;2041386;29;20576;-73
2022/07/06 03:00:58;;;;;;;26.40;24.30;;;;;;;15.97;nan;99198.94;2041589;29;20533;-73
2022/07/06 03:02:00;;;;;;;26.87;24.40;;;;;;;15.99;nan;99204.03;2049529;29;20198;-72
2022/07/06 03:03:02;;;;;;;26.43;24.23;;;;;;;15.97;nan;99200.84;2049579;29;20461;-73
2022/07/06 03:04:04;;;;;;;27.07;24.73;;;;;;;15.97;nan;99200.84;2049532;29;20453;-73
2022/07/06 03:05:09;;;;;;;28.43;25.67;;;;;;;15.98;nan;99203.22;2040983;29;20494;-73
2022/07/06 03:06:10;;;;;;;27.50;24.97;;;;;;;15.98;nan;99207.81;2049102;29;20199;-73
2022/07/06 03:07:12;;;;;;;26.93;24.53;;;;;;;15.99;nan;99195.94;2049564;29;20456;-73
2022/07/06 03:08:14;;;;;;;27.47;25.00;;;;;;;15.99;nan;99204.81;2049471;29;20209;-73
2022/07/06 03:09:18;;;;;;;26.80;24.60;;;;;;;15.99;nan;99195.94;2041797;29;20435;-73
2022/07/06 03:10:19;;;;;;;27.23;25.03;;;;;;;16.00;nan;99205.59;2041684;29;20490;-73
2022/07/06 03:11:21;;;;;;;27.47;25.27;;;;;;;16.02;nan;99197.97;2049496;29;20509;-73
2022/07/06 03:12:23;;;;;;;26.40;23.90;;;;;;;16.04;nan;99206.50;2041613;29;20310;-72
2022/07/06 03:13:25;;;;;;;27.23;24.87;;;;;;;16.05;nan;99206.16;2041628;29;20476;-73
2022/07/06 03:14:26;;;;;;;26.40;24.20;;;;;;;16.05;nan;99191.94;2049451;29;20956;-73
2022/07/06 03:15:28;;;;;;;26.20;24.10;;;;;;;16.06;nan;99193.50;2049455;29;20442;-72
2022/07/06 03:16:31;;;;;;;26.97;24.67;;;;;;;16.06;nan;99196.19;2041328;29;20513;-73
2022/07/06 03:17:33;;;;;;;26.53;24.43;;;;;;;16.06;nan;99201.56;2041775;29;20451;-72
2022/07/06 03:18:35;;;;;;;26.30;24.20;;;;;;;16.08;nan;99199.38;2041511;29;20993;-73
2022/07/06 03:19:37;;;;;;;26.57;24.20;;;;;;;16.09;nan;99204.41;2048703;29;20454;-73
2022/07/06 03:20:38;;;;;;;26.63;24.20;;;;;;;16.07;nan;99205.84;2049548;29;20481;-73
2022/07/06 03:21:42;;;;;;;26.60;24.30;;;;;;;16.09;nan;99204.41;2041490;29;20462;-73
2022/07/06 03:22:43;;;;;;;27.67;25.00;;;;;;;16.14;nan;99210.69;2049616;28;20430;-72
2022/07/06 03:23:49;;;;;;;27.20;24.80;;;;;;;16.18;nan;99212.41;2049406;29;20477;-73
2022/07/06 03:24:51;;;;;;;26.70;24.33;;;;;;;16.23;nan;99214.91;2049343;29;20468;-73
2022/07/06 03:25:53;;;;;;;26.53;24.13;;;;;;;16.24;nan;99205.69;2041491;29;20893;-73
2022/07/06 03:26:56;;;;;;;26.77;24.07;;;;;;;16.24;nan;99207.59;2049720;28;20438;-73
2022/07/06 03:27:58;;;;;;;26.17;23.90;;;;;;;16.28;nan;99212.03;2057298;28;20473;-73
2022/07/06 03:28:59;;;;;;;26.37;24.17;;;;;;;16.27;nan;99207.75;2048902;29;20990;-73
2022/07/06 03:30:01;;;;;;;26.20;24.10;;;;;;;16.27;nan;99204.28;2041396;29;20809;-73
2022/07/06 03:31:03;;;;;;;27.03;24.53;;;;;;;16.29;nan;99208.19;2041419;29;20455;-74
2022/07/06 03:32:04;;;;;;;26.83;24.53;;;;;;;16.29;nan;99210.91;2049276;29;20449;-73
2022/07/06 03:33:07;;;;;;;26.93;24.80;;;;;;;16.29;nan;99210.91;2049318;29;20797;-73
2022/07/06 03:34:08;;;;;;;27.07;24.83;;;;;;;16.34;nan;99213.41;2049304;29;20457;-73
2022/07/06 03:35:10;;;;;;;27.60;25.30;;;;;;;16.32;nan;99210.22;2049285;29;20476;-73
2022/07/06 03:36:12;;;;;;;27.37;25.07;;;;;;;16.32;nan;99217.50;2048804;29;20458;-73
2022/07/06 03:37:13;;;;;;;26.90;24.70;;;;;;;16.35;nan;99214.97;2048971;29;20959;-73
2022/07/06 03:38:17;;;;;;;26.50;24.30;;;;;;;16.35;nan;99219.56;2049271;29;20202;-73
2022/07/06 03:39:19;;;;;;;26.90;24.50;;;;;;;16.31;nan;99219.44;2049278;29;20450;-73
2022/07/06 03:40:25;;;;;;;25.70;23.50;;;;;;;16.36;nan;99213.84;2049277;29;20497;-73
2022/07/06 03:41:27;;;;;;;26.97;24.87;;;;;;;16.36;nan;99221.94;2049243;29;20549;-72
2022/07/06 03:42:28;;;;;;;25.93;23.70;;;;;;;16.33;nan;99219.91;2049407;29;20433;-73
2022/07/06 03:43:30;;;;;;;27.10;24.83;;;;;;;16.32;nan;99218.31;2057279;28;20202;-73
2022/07/06 03:44:32;;;;;;;28.27;25.77;;;;;;;16.35;nan;99216.88;2048892;29;20474;-73
2022/07/06 03:45:33;;;;;;;27.43;25.03;;;;;;;16.35;nan;99216.88;2049243;29;20449;-73
2022/07/06 03:46:38;;;;;;;27.40;25.00;;;;;;;16.33;nan;99217.22;2049243;29;20438;-72
2022/07/06 03:47:42;;;;;;;28.57;26.03;;;;;;;16.36;nan;99219.22;2049386;29;20446;-72
2022/07/06 03:48:44;;;;;;;27.93;25.63;;;;;;;16.37;nan;99215.41;2049339;29;20450;-73
2022/07/06 03:49:46;;;;;;;27.40;25.13;;;;;;;16.37;nan;99220.81;2049296;29;20943;-72
2022/07/06 03:50:47;;;;;;;28.47;26.00;;;;;;;16.40;nan;99224.75;2041364;29;20628;-73
2022/07/06 03:51:51;;;;;;;29.37;26.70;;;;;;;16.38;nan;99222.38;2041010;29;20471;-73
2022/07/06 03:52:53;;;;;;;31.83;28.67;;;;;;;16.37;nan;99220.81;2041691;29;20218;-73
2022/07/06 03:53:55;;;;;;;29.03;26.43;;;;;;;16.39;nan;99221.25;2049214;29;20475;-73
2022/07/06 03:54:56;;;;;;;28.10;25.60;;;;;;;16.39;nan;99218.56;2049236;29;20210;-73
2022/07/06 03:57:25;;;;;;;28.73;26.17;;;;;;;16.39;nan;99207.78;2043875;29;20438;-72
2022/07/06 03:58:27;;;;;;;28.50;26.00;;;;;;;16.39;nan;99212.41;2049532;28;20912;-73
2022/07/06 03:59:31;;;;;;;28.27;25.97;;;;;;;16.38;nan;99211.59;2048379;29;20533;-73
2022/07/06 04:00:34;;;;;;;27.83;25.60;;;;;;;16.40;nan;99217.44;2049137;29;20450;-73
2022/07/06 04:01:41;;;;;;;27.47;25.27;;;;;;;16.39;nan;99213.19;2042199;29;20435;-73
2022/07/06 04:02:45;;;;;;;27.67;25.33;;;;;;;16.40;nan;99217.44;2041972;29;20514;-72
2022/07/06 04:03:52;;;;;;;27.50;25.20;;;;;;;16.40;nan;99220.13;2049189;29;20457;-73
2022/07/06 04:04:53;;;;;;;28.53;26.07;;;;;;;16.45;nan;99221.06;2041406;29;20447;-73
2022/07/06 04:05:58;;;;;;;28.13;25.77;;;;;;;16.42;nan;99214.44;2048739;29;20449;-73
2022/07/06 04:07:03;;;;;;;26.80;24.60;;;;;;;16.47;nan;99222.31;2041858;29;20469;-73
2022/07/06 04:08:04;;;;;;;26.37;24.27;;;;;;;16.48;nan;99215.00;2049121;29;20544;-73
2022/07/06 04:09:15;;;;;;;27.50;24.80;;;;;;;16.48;nan;99220.41;2042352;29;20455;-73
2022/07/06 04:10:16;;;;;;;28.23;25.93;;;;;;;16.51;nan;99223.22;2041654;29;20902;-72
2022/07/06 04:11:20;;;;;;;28.20;25.70;;;;;;;16.52;nan;99221.31;2043117;29;20456;-73
2022/07/06 04:12:23;;;;;;;28.27;25.93;;;;;;;16.55;nan;99217.97;2043237;29;20486;-73
2022/07/06 04:13:26;;;;;;;27.30;24.80;;;;;;;16.62;nan;99218.22;2051019;28;20438;-73
2022/07/06 04:14:27;;;;;;;26.87;24.67;;;;;;;16.62;nan;99216.31;2051132;29;20477;-73
2022/07/06 04:15:29;;;;;;;26.20;23.83;;;;;;;16.58;nan;99223.47;2050837;28;20505;-73
2022/07/06 04:16:32;;;;;;;27.27;24.87;;;;;;;16.61;nan;99213.94;2050445;29;20469;-73
2022/07/06 04:17:53;;;;;;;26.87;24.63;;;;;;;16.65;nan;99214.84;2043250;29;20450;-73
2022/07/06 04:18:58;;;;;;;26.00;23.73;;;;;;;16.70;nan;99211.97;2045691;29;20992;-73
2022/07/06 04:19:58;;;;;;;25.93;23.93;;;;;;;16.79;nan;99211.91;2050377;29;20457;-73
2022/07/06 04:21:02;;;;;;;25.53;23.27;;;;;;;16.77;nan;99212.22;2050216;29;20441;-73
2022/07/06 04:22:04;;;;;;;25.53;23.33;;;;;;;16.71;nan;99202.00;2050946;29;20438;-73
2022/07/06 04:23:08;;;;;;;26.63;24.20;;;;;;;16.82;nan;99200.44;2050732;29;20442;-73
2022/07/06 04:24:08;;;;;;;25.30;23.30;;;;;;;16.86;nan;99194.06;2043135;29;20202;-73
2022/07/06 04:25:11;;;;;;;26.03;23.77;;;;;;;16.86;nan;99194.06;2042813;29;20514;-73
2022/07/06 04:26:13;;;;;;;26.23;23.97;;;;;;;16.84;nan;99196.28;2042839;29;20451;-73
2022/07/06 04:27:21;;;;;;;26.43;24.03;;;;;;;16.79;nan;99196.50;2051206;28;20955;-73
2022/07/06 04:28:23;;;;;;;26.03;23.90;;;;;;;16.76;nan;99197.16;2050703;29;20540;-73
2022/07/06 04:29:24;;;;;;;26.73;24.30;;;;;;;16.70;nan;99201.22;2050583;29;20457;-73
2022/07/06 04:30:28;;;;;;;26.80;24.50;;;;;;;16.68;nan;99206.13;2050705;29;20438;-73
2022/07/06 04:31:30;;;;;;;26.33;24.20;;;;;;;16.69;nan;99204.25;2043085;29;20217;-73
2022/07/06 04:32:31;;;;;;;26.30;23.90;;;;;;;16.65;nan;99204.84;2050580;28;20590;-73
2022/07/06 04:33:34;;;;;;;26.63;24.47;;;;;;;16.65;nan;99209.47;2050241;29;20446;-73
2022/07/06 04:34:35;;;;;;;27.07;24.67;;;;;;;16.69;nan;99210.41;2042727;29;20211;-73
2022/07/06 04:35:36;;;;;;;26.37;24.20;;;;;;;16.66;nan;99213.72;2050742;28;20948;-73
2022/07/06 04:36:39;;;;;;;25.87;23.87;;;;;;;16.67;nan;99223.38;2049579;29;20492;-73
2022/07/06 04:37:41;;;;;;;26.40;24.30;;;;;;;16.66;nan;99211.81;2050865;28;20454;-73
2022/07/06 04:38:43;;;;;;;27.10;24.90;;;;;;;16.64;nan;99221.34;2050589;29;20449;-72
2022/07/06 04:39:45;;;;;;;25.40;23.50;;;;;;;16.62;nan;99215.50;2042766;29;20467;-73
2022/07/06 04:40:47;;;;;;;24.70;22.70;;;;;;;16.59;nan;99206.19;2050724;29;20434;-72
2022/07/06 04:41:50;;;;;;;25.27;23.27;;;;;;;16.51;nan;99217.84;2050152;29;20245;-72
2022/07/06 04:42:54;;;;;;;25.00;22.77;;;;;;;16.47;nan;99211.53;2050581;29;20546;-73
2022/07/06 04:43:57;;;;;;;25.30;23.10;;;;;;;16.40;nan;99220.13;2050641;29;20198;-73
2022/07/06 04:44:59;;;;;;;25.03;22.93;;;;;;;16.40;nan;99216.66;2051135;28;20488;-73
2022/07/06 04:46:01;;;;;;;25.83;23.83;;;;;;;16.35;nan;99223.03;2050531;29;20502;-73
2022/07/06 04:47:03;;;;;;;26.23;23.90;;;;;;;16.34;nan;99231.47;2050517;29;20530;-72
2022/07/06 04:48:04;;;;;;;25.63;23.33;;;;;;;16.33;nan;99230.69;2050675;28;20792;-73
2022/07/06 04:49:08;;;;;;;25.83;23.63;;;;;;;16.34;nan;99229.56;2058836;28;20828;-73
2022/07/06 04:50:12;;;;;;;26.00;23.50;;;;;;;16.34;nan;99224.16;2050492;29;20465;-73
2022/07/06 04:51:16;;;;;;;25.60;23.30;;;;;;;16.30;nan;99231.31;2042553;29;20446;-73
2022/07/06 04:52:17;;;;;;;25.00;22.83;;;;;;;16.28;nan;99230.06;2043075;29;20442;-73
2022/07/06 04:53:19;;;;;;;25.47;23.20;;;;;;;16.29;nan;99229.75;2050959;29;20477;-73
2022/07/06 04:54:20;;;;;;;25.20;23.10;;;;;;;16.29;nan;99240.50;2050463;29;20198;-73
2022/07/06 04:55:22;;;;;;;25.27;22.90;;;;;;;16.30;nan;99244.78;2050541;29;20983;-73